createdAt,value
2024-03-15T00:01:38.007Z,78989.72
2024-03-15T00:03:12.520Z,78969.94
2024-03-15T00:04:46.383Z,78987.72
2024-03-15T00:06:19.958Z,78995.66
2024-03-15T00:07:53.453Z,78999.59
2024-03-15T00:09:27.269Z,78991.69
2024-03-15T00:11:01.024Z,79003.56
2024-03-15T00:12:40.536Z,79013.47
2024-03-15T00:14:14.136Z,78987.72
2024-03-15T00:15:47.888Z,78995.66
2024-03-15T00:17:21.551Z,78991.69
2024-03-15T00:18:57.302Z,78973.88
2024-03-15T00:20:31.373Z,78993.66
2024-03-15T00:22:05.419Z,78989.72
2024-03-15T00:23:39.131Z,79001.59
2024-03-15T00:25:15.616Z,79001.59
2024-03-15T00:26:49.502Z,79055.00
2024-03-15T00:28:23.606Z,79011.47
2024-03-15T00:30:00.261Z,78985.75
2024-03-15T00:31:34.236Z,79003.56
2024-03-15T00:33:10.676Z,78985.75
2024-03-15T00:34:44.489Z,79017.41
2024-03-15T00:36:21.232Z,78997.63
2024-03-15T00:37:55.033Z,79017.41
2024-03-15T00:39:31.808Z,79019.41
2024-03-15T00:41:05.363Z,79013.47
2024-03-15T00:42:40.007Z,79035.22
2024-03-15T00:44:14.481Z,79029.28
2024-03-15T00:45:48.745Z,79025.31
2024-03-15T00:47:23.454Z,79019.41
2024-03-15T00:48:57.094Z,79090.63
2024-03-15T00:50:33.967Z,79013.47
2024-03-15T00:52:07.514Z,79011.47
2024-03-15T00:53:44.214Z,79013.47
2024-03-15T00:55:23.628Z,79047.09
2024-03-15T00:56:58.104Z,79039.19
2024-03-15T00:58:32.505Z,79033.25
2024-03-15T01:00:07.288Z,79025.31
2024-03-15T01:01:41.289Z,79045.13
2024-03-15T01:03:15.085Z,79045.13
2024-03-15T01:04:48.287Z,79064.91
2024-03-15T01:06:25.261Z,79060.94
2024-03-15T01:08:00.127Z,79066.88
2024-03-15T01:09:34.034Z,79055.00
2024-03-15T01:11:07.930Z,79072.81
2024-03-15T01:12:41.908Z,79049.06
2024-03-15T01:14:15.728Z,79045.13
2024-03-15T01:15:49.518Z,79078.75
2024-03-15T01:17:23.088Z,79045.13
2024-03-15T01:18:56.919Z,79039.19
2024-03-15T01:20:33.814Z,79027.31
2024-03-15T01:22:11.281Z,79023.34
2024-03-15T01:23:44.897Z,79068.84
2024-03-15T01:25:19.781Z,79033.25
2024-03-15T01:26:53.616Z,79019.41
2024-03-15T01:28:31.096Z,79019.41
2024-03-15T01:30:04.966Z,79031.25
2024-03-15T01:31:40.511Z,79035.22
2024-03-15T01:33:15.089Z,79051.06
2024-03-15T01:34:48.926Z,79066.88
2024-03-15T01:36:22.291Z,79047.09
2024-03-15T01:37:55.745Z,79068.84
2024-03-15T01:39:29.863Z,79066.88
2024-03-15T01:41:03.526Z,79047.09
2024-03-15T01:42:37.848Z,79062.94
2024-03-15T01:44:15.355Z,79070.84
2024-03-15T01:45:53.539Z,79070.84
2024-03-15T01:47:31.166Z,79076.78
2024-03-15T01:49:05.155Z,79060.94
2024-03-15T01:50:41.889Z,79084.69
2024-03-15T01:52:17.950Z,79037.19
2024-03-15T01:53:52.046Z,79068.84
2024-03-15T01:55:26.182Z,79092.59
2024-03-15T01:57:02.416Z,79064.91
2024-03-15T01:58:38.546Z,79068.84
2024-03-15T02:00:15.615Z,79053.03
2024-03-15T02:01:49.457Z,79076.78
2024-03-15T02:03:26.123Z,79045.13
2024-03-15T02:04:59.969Z,79060.94
2024-03-15T02:06:33.262Z,79064.91
2024-03-15T02:08:09.899Z,79094.59
2024-03-15T02:09:43.554Z,79068.84
2024-03-15T02:11:17.105Z,79201.44
2024-03-15T02:12:51.126Z,79104.47
2024-03-15T02:14:26.500Z,79078.75
2024-03-15T02:16:02.763Z,79086.66
2024-03-15T02:17:40.349Z,79084.69
2024-03-15T02:19:13.865Z,79112.38
2024-03-15T02:20:47.747Z,79128.22
2024-03-15T02:22:20.762Z,79128.22
2024-03-15T02:23:53.846Z,79110.41
2024-03-15T02:25:26.624Z,79138.09
2024-03-15T02:26:59.556Z,79124.25
2024-03-15T02:28:33.257Z,79148.00
2024-03-15T02:30:07.930Z,79219.25
2024-03-15T02:31:41.254Z,79169.78
2024-03-15T02:33:14.912Z,79140.09
2024-03-15T02:34:48.008Z,79144.03
2024-03-15T02:36:21.114Z,79151.97
2024-03-15T02:37:55.608Z,79151.97
2024-03-15T02:39:29.484Z,79153.94
2024-03-15T02:41:06.752Z,79128.22
2024-03-15T02:42:40.905Z,79144.03
2024-03-15T02:44:15.736Z,79116.34
2024-03-15T02:45:48.843Z,79132.19
2024-03-15T02:47:27.177Z,79112.38
2024-03-15T02:49:01.937Z,79136.13
2024-03-15T02:50:35.316Z,79118.31
2024-03-15T02:52:08.778Z,79116.34
2024-03-15T02:53:42.622Z,79104.47
2024-03-15T02:55:18.602Z,79124.25
2024-03-15T02:56:55.130Z,79098.53
2024-03-15T02:58:29.489Z,79086.66
2024-03-15T03:00:03.556Z,79110.41
2024-03-15T03:01:37.418Z,79074.78
2024-03-15T03:03:13.421Z,79045.13
2024-03-15T03:04:46.897Z,79057.00
2024-03-15T03:06:20.669Z,79029.28
2024-03-15T03:07:54.415Z,79011.47
2024-03-15T03:09:30.505Z,78973.88
2024-03-15T03:11:13.493Z,78928.38
2024-03-15T03:12:47.261Z,78878.91
2024-03-15T03:14:20.544Z,78853.19
2024-03-15T03:15:57.285Z,78742.41
2024-03-15T03:17:31.136Z,78679.09
2024-03-15T03:19:06.530Z,78564.34
2024-03-15T03:20:44.047Z,78451.56
2024-03-15T03:22:19.473Z,78410.03
2024-03-15T03:23:59.120Z,78392.22
2024-03-15T03:25:33.910Z,78414.00
2024-03-15T03:27:07.733Z,78421.91
2024-03-15T03:28:41.082Z,78352.66
2024-03-15T03:30:14.337Z,78336.84
2024-03-15T03:31:47.714Z,78287.38
2024-03-15T03:33:21.394Z,78295.28
2024-03-15T03:34:54.947Z,78230.00
2024-03-15T03:36:31.818Z,78164.72
2024-03-15T03:38:05.499Z,78063.84
2024-03-15T03:39:38.905Z,78024.28
2024-03-15T03:41:12.350Z,78002.53
2024-03-15T03:42:46.320Z,77877.91
2024-03-15T03:44:20.776Z,77866.03
2024-03-15T03:45:56.987Z,77846.25
2024-03-15T03:47:30.371Z,77709.78
2024-03-15T03:49:04.403Z,77727.59
2024-03-15T03:50:37.970Z,77731.53
2024-03-15T03:52:10.982Z,77757.25
2024-03-15T03:53:44.359Z,77846.25
2024-03-15T03:55:17.972Z,77745.38
2024-03-15T03:57:04.431Z,77703.84
2024-03-15T03:58:41.560Z,77755.28
2024-03-15T04:00:17.057Z,77735.50
2024-03-15T04:02:01.272Z,77731.53
2024-03-15T04:04:08.141Z,77751.31
2024-03-15T04:05:51.267Z,77769.13
2024-03-15T04:07:30.693Z,77788.91
2024-03-15T04:11:06.785Z,77719.66
2024-03-15T04:12:42.175Z,77652.41
2024-03-15T04:14:15.619Z,77690.00
2024-03-15T04:16:06.618Z,77690.00
2024-03-15T04:17:46.433Z,77577.25
2024-03-15T04:19:20.112Z,77545.63
2024-03-15T04:20:56.115Z,77587.16
2024-03-15T04:22:29.542Z,77537.69
2024-03-15T04:24:06.724Z,77608.91
2024-03-15T04:25:39.924Z,77579.25
2024-03-15T04:27:14.297Z,77595.06
2024-03-15T04:28:47.789Z,77575.28
2024-03-15T04:30:24.352Z,77508.03
2024-03-15T04:31:59.343Z,77472.44
2024-03-15T04:33:32.763Z,77385.41
2024-03-15T04:35:07.809Z,77343.88
2024-03-15T04:36:41.235Z,77462.53
2024-03-15T04:38:14.257Z,77436.84
2024-03-15T04:39:47.519Z,77365.63
2024-03-15T04:41:24.576Z,77328.06
2024-03-15T04:43:01.318Z,77387.38
2024-03-15T04:44:39.797Z,77387.38
2024-03-15T04:46:12.789Z,77337.94
2024-03-15T04:47:46.011Z,77288.50
2024-03-15T04:49:19.583Z,77256.84
2024-03-15T04:50:53.279Z,77343.88
2024-03-15T04:52:27.095Z,77231.16
2024-03-15T04:54:00.662Z,77288.50
2024-03-15T04:55:35.052Z,77185.66
2024-03-15T04:57:08.155Z,77221.25
2024-03-15T04:58:41.580Z,77235.09
2024-03-15T05:00:22.371Z,77122.38
2024-03-15T05:01:56.402Z,76962.19
2024-03-15T05:03:30.222Z,77013.59
2024-03-15T05:05:08.600Z,77082.81
2024-03-15T05:06:41.904Z,77063.03
2024-03-15T05:08:14.818Z,77100.63
2024-03-15T05:09:47.550Z,77110.50
2024-03-15T05:11:20.333Z,77094.69
2024-03-15T05:12:53.143Z,77169.84
2024-03-15T05:14:26.298Z,77256.84
2024-03-15T05:15:59.491Z,77110.50
2024-03-15T05:17:32.833Z,77067.00
2024-03-15T05:19:08.455Z,77086.78
2024-03-15T05:20:41.450Z,77041.28
2024-03-15T05:22:14.829Z,77067.00
2024-03-15T05:23:48.843Z,76974.06
2024-03-15T05:25:21.643Z,76946.38
2024-03-15T05:26:54.605Z,76948.34
2024-03-15T05:28:29.308Z,77098.63
2024-03-15T05:30:02.635Z,77043.25
2024-03-15T05:31:37.016Z,77116.44
2024-03-15T05:33:09.906Z,77223.22
2024-03-15T05:34:43.135Z,77359.69
2024-03-15T05:36:16.014Z,77426.94
2024-03-15T05:37:49.114Z,77486.28
2024-03-15T05:39:22.965Z,77498.16
2024-03-15T05:40:55.999Z,77535.72
2024-03-15T05:42:31.459Z,77531.75
2024-03-15T05:44:07.156Z,77561.44
2024-03-15T05:45:39.925Z,77664.28
2024-03-15T05:47:14.068Z,77731.53
2024-03-15T05:48:46.812Z,77757.25
2024-03-15T05:50:19.480Z,77715.72
2024-03-15T05:51:52.775Z,77798.78
2024-03-15T05:53:26.000Z,77794.84
2024-03-15T05:54:58.774Z,77751.31
2024-03-15T05:56:31.659Z,77862.09
2024-03-15T05:58:05.094Z,77765.16
2024-03-15T05:59:38.137Z,77814.59
2024-03-15T06:01:11.116Z,77782.97
2024-03-15T06:02:45.591Z,77824.50
2024-03-15T06:04:18.829Z,77844.28
2024-03-15T06:05:52.349Z,77858.13
2024-03-15T06:07:25.598Z,77919.44
2024-03-15T06:08:59.005Z,77870.00
2024-03-15T06:10:32.545Z,77879.88
2024-03-15T06:12:13.843Z,77947.13
2024-03-15T06:13:46.690Z,77887.78
2024-03-15T06:15:21.148Z,77850.22
2024-03-15T06:16:54.149Z,77959.00
2024-03-15T06:18:27.338Z,77988.69
2024-03-15T06:20:00.625Z,77941.22
2024-03-15T06:21:35.113Z,77887.78
2024-03-15T06:23:08.184Z,77866.03
2024-03-15T06:24:41.260Z,77858.13
2024-03-15T06:26:15.182Z,77887.78
2024-03-15T06:27:51.671Z,77838.34
2024-03-15T06:29:25.505Z,77830.44
2024-03-15T06:30:58.704Z,77798.78
2024-03-15T06:32:38.254Z,77862.09
2024-03-15T06:34:12.056Z,77786.91
2024-03-15T06:35:52.371Z,77747.34
2024-03-15T06:37:27.439Z,77798.78
2024-03-15T06:39:10.925Z,77743.41
2024-03-15T06:40:57.659Z,77680.09
2024-03-15T06:42:39.667Z,77715.72
2024-03-15T06:44:15.542Z,77715.72
2024-03-15T06:45:51.101Z,77684.06
2024-03-15T06:47:30.147Z,77727.59
2024-03-15T06:49:14.265Z,77743.41
2024-03-15T06:50:50.176Z,77691.97
2024-03-15T06:52:41.114Z,77769.13
2024-03-15T06:54:16.911Z,77779.00
2024-03-15T06:55:53.815Z,77808.69
2024-03-15T06:57:29.611Z,77775.06
2024-03-15T06:59:03.315Z,77731.53
2024-03-15T07:00:37.266Z,77725.59
2024-03-15T07:02:11.088Z,77721.66
2024-03-15T07:03:45.275Z,77794.84
2024-03-15T07:05:23.681Z,77790.88
2024-03-15T07:06:56.793Z,77751.31
2024-03-15T07:08:29.870Z,77691.97
2024-03-15T07:10:03.011Z,77719.66
2024-03-15T07:11:36.575Z,77800.75
2024-03-15T07:13:10.901Z,77877.91
2024-03-15T07:14:47.948Z,77877.91
2024-03-15T07:16:22.781Z,77846.25
2024-03-15T07:17:55.679Z,77913.50
2024-03-15T07:19:29.710Z,77846.25
2024-03-15T07:21:02.591Z,77885.81
2024-03-15T07:22:36.109Z,77844.28
2024-03-15T07:24:09.409Z,77862.09
2024-03-15T07:25:42.696Z,77806.69
2024-03-15T07:27:15.944Z,77786.91
2024-03-15T07:28:48.818Z,77731.53
2024-03-15T07:30:21.764Z,77782.97
2024-03-15T07:31:56.036Z,77830.44
2024-03-15T07:33:28.885Z,77854.16
2024-03-15T07:35:02.544Z,77921.44
2024-03-15T07:36:35.631Z,77941.22
2024-03-15T07:38:11.693Z,77937.25
2024-03-15T07:39:46.387Z,78055.94
2024-03-15T07:41:19.845Z,78057.91
2024-03-15T07:42:55.004Z,78050.00
2024-03-15T07:44:28.855Z,78028.25
2024-03-15T07:46:01.607Z,78024.28
2024-03-15T07:47:38.018Z,78028.25
2024-03-15T07:49:11.038Z,77968.91
2024-03-15T07:50:47.690Z,77959.00
2024-03-15T07:52:21.849Z,77895.72
2024-03-15T07:54:00.451Z,77927.34
2024-03-15T07:55:41.304Z,77830.44
2024-03-15T07:57:15.719Z,77862.09
2024-03-15T07:58:48.840Z,77871.97
2024-03-15T08:00:22.288Z,77935.28
2024-03-15T08:01:55.401Z,78030.22
2024-03-15T08:03:29.063Z,78004.50
2024-03-15T08:05:02.242Z,77929.34
2024-03-15T08:06:38.954Z,77915.50
2024-03-15T08:08:12.860Z,77891.75
2024-03-15T08:09:49.319Z,77919.44
2024-03-15T08:11:22.551Z,77786.91
2024-03-15T08:12:56.436Z,77779.00
2024-03-15T08:14:32.948Z,77830.44
2024-03-15T08:16:25.445Z,77810.66
2024-03-15T08:17:59.142Z,77814.59
2024-03-15T08:19:33.623Z,77806.69
2024-03-15T08:21:08.940Z,77826.47
2024-03-15T08:22:42.527Z,77850.22
2024-03-15T08:24:15.753Z,77842.31
2024-03-15T08:25:51.537Z,77873.94
2024-03-15T08:27:24.648Z,77917.47
2024-03-15T08:28:58.006Z,77885.81
2024-03-15T08:30:31.476Z,77844.28
2024-03-15T08:32:04.713Z,77889.78
2024-03-15T08:33:37.758Z,77899.66
2024-03-15T08:35:16.029Z,77990.66
2024-03-15T08:36:49.390Z,77870.00
2024-03-15T08:38:23.070Z,77887.78
2024-03-15T08:39:56.487Z,77862.09
2024-03-15T08:41:29.630Z,77879.88
2024-03-15T08:43:02.618Z,77889.78
2024-03-15T08:44:36.035Z,77860.09
2024-03-15T08:46:09.124Z,77870.00
2024-03-15T08:47:51.257Z,77842.31
2024-03-15T08:49:32.622Z,77903.63
2024-03-15T08:51:05.856Z,77879.88
2024-03-15T08:52:42.928Z,77860.09
2024-03-15T08:54:16.890Z,77885.81
2024-03-15T08:55:50.256Z,77871.97
2024-03-15T08:57:24.670Z,77873.94
2024-03-15T08:59:00.036Z,77984.72
2024-03-15T09:00:34.106Z,77945.16
2024-03-15T09:02:07.217Z,77929.34
2024-03-15T09:03:41.597Z,77903.63
2024-03-15T09:05:16.342Z,77911.53
2024-03-15T09:06:49.825Z,77873.94
2024-03-15T09:08:23.294Z,77899.66
2024-03-15T09:10:00.543Z,77923.41
2024-03-15T09:11:34.508Z,77889.78
2024-03-15T09:13:08.098Z,77907.56
2024-03-15T09:14:40.994Z,77917.47
2024-03-15T09:16:15.099Z,77828.47
2024-03-15T09:17:50.934Z,77885.81
2024-03-15T09:19:24.354Z,77862.09
2024-03-15T09:20:58.457Z,77883.84
2024-03-15T09:22:32.331Z,77925.38
2024-03-15T09:24:06.648Z,77883.84
2024-03-15T09:25:40.257Z,77909.56
2024-03-15T09:27:13.314Z,77899.66
2024-03-15T09:28:47.618Z,77907.56
2024-03-15T09:30:47.353Z,77879.88
2024-03-15T09:32:32.889Z,77905.59
2024-03-15T09:34:07.717Z,78020.31
2024-03-15T09:35:46.138Z,77921.44
2024-03-15T09:37:22.974Z,77917.47
2024-03-15T09:38:57.542Z,77891.75
2024-03-15T09:40:31.395Z,77899.66
2024-03-15T09:42:04.849Z,77879.88
2024-03-15T09:43:39.814Z,77927.34
2024-03-15T09:45:20.390Z,77844.28
2024-03-15T09:46:53.443Z,77842.31
2024-03-15T09:48:27.633Z,77907.56
2024-03-15T09:50:03.019Z,77913.50
2024-03-15T09:51:37.526Z,77909.56
2024-03-15T09:53:11.574Z,77860.09
2024-03-15T09:54:44.639Z,77960.97
2024-03-15T09:56:19.368Z,77913.50
2024-03-15T09:57:52.884Z,77913.50
2024-03-15T09:59:35.711Z,77901.66
2024-03-15T10:01:14.629Z,77881.88
2024-03-15T10:02:49.404Z,77891.75
2024-03-15T10:04:23.048Z,77899.66
2024-03-15T10:05:57.601Z,77848.25
2024-03-15T10:07:33.441Z,77937.25
2024-03-15T10:09:07.220Z,77879.88
2024-03-15T10:10:46.838Z,77933.28
2024-03-15T10:12:19.996Z,77929.34
2024-03-15T10:13:53.535Z,77917.47
2024-03-15T10:15:26.668Z,77889.78
2024-03-15T10:16:59.795Z,77887.78
2024-03-15T10:18:39.499Z,77879.88
2024-03-15T10:20:16.923Z,77887.78
2024-03-15T10:21:49.997Z,77893.72
2024-03-15T10:23:23.670Z,77951.09
2024-03-15T10:24:56.760Z,77913.50
2024-03-15T10:26:29.755Z,77913.50
2024-03-15T10:28:03.283Z,77864.06
2024-03-15T10:29:36.581Z,77959.00
2024-03-15T10:31:13.411Z,77933.28
2024-03-15T10:32:51.094Z,77972.84
2024-03-15T10:34:24.768Z,77905.59
2024-03-15T10:35:58.018Z,77960.97
2024-03-15T10:37:34.220Z,77966.91
2024-03-15T10:39:11.227Z,77972.84
2024-03-15T10:40:45.024Z,78026.25
2024-03-15T10:42:18.672Z,77921.44
2024-03-15T10:43:53.973Z,77905.59
2024-03-15T10:45:27.336Z,77917.47
2024-03-15T10:47:02.794Z,77911.53
2024-03-15T10:48:36.010Z,77919.44
2024-03-15T10:50:21.977Z,77854.16
2024-03-15T10:51:55.670Z,77915.50
2024-03-15T10:53:29.461Z,77834.38
2024-03-15T10:55:05.086Z,77891.75
2024-03-15T10:56:38.407Z,77937.25
2024-03-15T10:58:12.988Z,77933.28
2024-03-15T10:59:46.129Z,77986.69
2024-03-15T11:01:23.406Z,77953.06
2024-03-15T11:02:58.461Z,77907.56
2024-03-15T11:04:31.611Z,77957.03
2024-03-15T11:06:06.537Z,78010.44
2024-03-15T11:07:39.892Z,78020.31
2024-03-15T11:09:25.927Z,77968.91
2024-03-15T11:11:03.060Z,77931.31
2024-03-15T11:12:39.234Z,77957.03
2024-03-15T11:14:15.833Z,78004.50
2024-03-15T11:15:48.973Z,77978.78
2024-03-15T11:17:23.626Z,78042.09
2024-03-15T11:19:08.088Z,77951.09
2024-03-15T11:20:50.973Z,77982.75
2024-03-15T11:22:24.637Z,78075.72
2024-03-15T11:24:08.414Z,78010.44
2024-03-15T11:25:43.314Z,78040.09
2024-03-15T11:27:16.547Z,77996.59
2024-03-15T11:28:59.985Z,78000.53
2024-03-15T11:30:35.985Z,78079.66
2024-03-15T11:32:12.553Z,78067.81
2024-03-15T11:33:45.944Z,78129.13
2024-03-15T11:35:19.585Z,78083.63
2024-03-15T11:36:53.255Z,78075.72
2024-03-15T11:38:27.704Z,78081.66
2024-03-15T11:40:02.004Z,78067.81
2024-03-15T11:41:39.812Z,78093.53
2024-03-15T11:43:14.468Z,78048.03
2024-03-15T11:44:48.847Z,78075.72
2024-03-15T11:46:22.342Z,78051.97
2024-03-15T11:47:55.722Z,78109.34
2024-03-15T11:49:29.072Z,78063.84
2024-03-15T11:51:05.467Z,78097.47
2024-03-15T11:52:38.600Z,78144.94
2024-03-15T11:54:19.855Z,78069.78
2024-03-15T11:55:54.000Z,78111.31
2024-03-15T11:57:28.129Z,78085.59
2024-03-15T11:59:04.089Z,78111.31
2024-03-15T12:00:40.451Z,78095.50
2024-03-15T12:02:13.610Z,78095.50
2024-03-15T12:03:48.007Z,78111.31
2024-03-15T12:05:21.328Z,78164.72
2024-03-15T12:06:56.124Z,78158.78
2024-03-15T12:08:30.298Z,78196.38
2024-03-15T12:10:04.263Z,78168.69
2024-03-15T12:11:38.444Z,78139.03
2024-03-15T12:13:31.841Z,78131.09
2024-03-15T12:15:05.962Z,78198.34
2024-03-15T12:16:43.223Z,78206.28
2024-03-15T12:18:24.329Z,78233.97
2024-03-15T12:19:58.600Z,78285.41
2024-03-15T12:21:31.575Z,78269.56
2024-03-15T12:23:06.621Z,78251.78
2024-03-15T12:24:39.860Z,78297.28
2024-03-15T12:26:12.748Z,78281.44
2024-03-15T12:27:48.341Z,78192.44
2024-03-15T12:29:21.896Z,78305.19
2024-03-15T12:30:56.301Z,78297.28
2024-03-15T12:32:34.650Z,78279.47
2024-03-15T12:34:09.035Z,78255.72
2024-03-15T12:35:45.355Z,78313.09
2024-03-15T12:37:19.431Z,78265.63
2024-03-15T12:38:52.282Z,78269.56
2024-03-15T12:40:26.223Z,78271.56
2024-03-15T12:41:59.354Z,78255.72
2024-03-15T12:43:32.545Z,78267.59
2024-03-15T12:45:06.078Z,78226.06
2024-03-15T12:46:39.258Z,78289.34
2024-03-15T12:48:13.641Z,78281.44
2024-03-15T12:49:47.215Z,78303.22
2024-03-15T12:51:20.423Z,78287.38
2024-03-15T12:52:53.553Z,78277.50
2024-03-15T12:54:27.182Z,78289.34
2024-03-15T12:56:01.320Z,78319.03
2024-03-15T12:57:34.551Z,78332.88
2024-03-15T12:59:07.520Z,78293.31
2024-03-15T13:00:40.723Z,78348.72
2024-03-15T13:02:13.790Z,78354.63
2024-03-15T13:03:46.896Z,78332.88
2024-03-15T13:05:20.909Z,78328.94
2024-03-15T13:06:54.277Z,78348.72
2024-03-15T13:08:27.559Z,78338.81
2024-03-15T13:10:00.595Z,78368.50
2024-03-15T13:11:33.842Z,78392.22
2024-03-15T13:13:07.517Z,78410.03
2024-03-15T13:14:40.966Z,78402.13
2024-03-15T13:16:14.147Z,78437.72
2024-03-15T13:17:50.811Z,78433.78
2024-03-15T13:19:24.149Z,78427.84
2024-03-15T13:20:57.458Z,78493.13
2024-03-15T13:22:32.105Z,78439.72
2024-03-15T13:24:07.161Z,78505.00
2024-03-15T13:25:40.045Z,78463.44
2024-03-15T13:27:15.779Z,78485.22
2024-03-15T13:28:49.635Z,78483.22
2024-03-15T13:30:23.300Z,78481.25
2024-03-15T13:31:56.279Z,78489.16
2024-03-15T13:33:29.197Z,78506.97
2024-03-15T13:35:02.692Z,78503.00
2024-03-15T13:36:37.060Z,78524.78
2024-03-15T13:38:11.793Z,78526.75
2024-03-15T13:39:45.152Z,78530.72
2024-03-15T13:41:25.950Z,78528.72
2024-03-15T13:43:00.939Z,78548.50
2024-03-15T13:44:36.616Z,78544.56
2024-03-15T13:46:14.358Z,78552.47
2024-03-15T13:47:52.509Z,78596.00
2024-03-15T13:49:26.229Z,78590.06
2024-03-15T13:50:59.135Z,78584.13
2024-03-15T13:52:32.349Z,78590.06
2024-03-15T13:54:06.483Z,78574.22
2024-03-15T13:55:43.179Z,78594.03
2024-03-15T13:57:16.645Z,78609.84
2024-03-15T13:58:49.749Z,78613.81
2024-03-15T14:00:42.425Z,78613.81
2024-03-15T14:02:18.804Z,78611.81
2024-03-15T14:03:55.661Z,78629.63
2024-03-15T14:05:29.376Z,78669.19
2024-03-15T14:07:02.740Z,78677.13
2024-03-15T14:08:35.836Z,78696.91
2024-03-15T14:10:08.295Z,78649.41
2024-03-15T14:11:41.798Z,78714.69
2024-03-15T14:13:25.715Z,78710.75
2024-03-15T14:15:01.530Z,78748.34
2024-03-15T14:16:35.286Z,78740.41
2024-03-15T14:18:10.627Z,78756.25
2024-03-15T14:19:44.410Z,78762.19
2024-03-15T14:21:18.097Z,78789.88
2024-03-15T14:22:55.685Z,78768.13
2024-03-15T14:24:28.915Z,78764.16
2024-03-15T14:26:02.013Z,78849.25
2024-03-15T14:27:35.111Z,78783.94
2024-03-15T14:29:09.905Z,78780.00
2024-03-15T14:30:45.874Z,78783.94
2024-03-15T14:32:20.243Z,78791.88
2024-03-15T14:33:53.343Z,78827.47
2024-03-15T14:35:27.253Z,78835.38
2024-03-15T14:37:00.169Z,78847.25
2024-03-15T14:38:33.496Z,78827.47
2024-03-15T14:40:10.707Z,78811.66
2024-03-15T14:41:44.038Z,78819.56
2024-03-15T14:43:17.279Z,78863.09
2024-03-15T14:44:50.309Z,78857.16
2024-03-15T14:46:23.347Z,78871.00
2024-03-15T14:48:03.930Z,78845.28
2024-03-15T14:49:44.555Z,78859.13
2024-03-15T14:51:18.072Z,78863.09
2024-03-15T14:52:55.259Z,78825.50
2024-03-15T14:54:34.114Z,78867.03
2024-03-15T14:56:10.758Z,78882.88
2024-03-15T14:57:43.968Z,78902.66
2024-03-15T14:59:18.649Z,78932.34
2024-03-15T15:00:51.857Z,78928.38
2024-03-15T15:02:25.100Z,78946.19
2024-03-15T15:03:58.502Z,78956.06
2024-03-15T15:05:33.197Z,78948.16
2024-03-15T15:07:07.647Z,78958.06
2024-03-15T15:08:41.638Z,78962.00
2024-03-15T15:10:15.884Z,78964.00
2024-03-15T15:11:49.478Z,78954.09
2024-03-15T15:13:22.752Z,78946.19
2024-03-15T15:14:55.961Z,78987.72
2024-03-15T15:16:30.574Z,78930.34
2024-03-15T15:18:05.981Z,78979.81
2024-03-15T15:19:46.039Z,78981.81
2024-03-15T15:21:22.484Z,78960.03
2024-03-15T15:22:56.332Z,78993.66
2024-03-15T15:24:29.674Z,78997.63
2024-03-15T15:26:03.214Z,79116.34
2024-03-15T15:27:36.380Z,79013.47
2024-03-15T15:29:09.641Z,79003.56
2024-03-15T15:30:44.020Z,78985.75
2024-03-15T15:32:18.057Z,79029.28
2024-03-15T15:33:51.543Z,79025.31
2024-03-15T15:35:25.205Z,78989.72
2024-03-15T15:36:58.478Z,79009.50
2024-03-15T15:38:32.338Z,79153.94
2024-03-15T15:40:19.589Z,79005.53
2024-03-15T15:41:55.354Z,79009.50
2024-03-15T15:43:28.385Z,79064.91
2024-03-15T15:45:01.967Z,79025.31
2024-03-15T15:46:36.984Z,79021.38
2024-03-15T15:48:11.428Z,79045.13
2024-03-15T15:49:45.252Z,79017.41
2024-03-15T15:51:19.890Z,79009.50
2024-03-15T15:52:53.272Z,79009.50
2024-03-15T15:54:30.090Z,79094.59
2024-03-15T15:56:03.542Z,79037.19
2024-03-15T15:57:36.261Z,79013.47
2024-03-15T15:59:11.676Z,79047.09
2024-03-15T16:00:46.331Z,79017.41
2024-03-15T16:02:19.489Z,79060.94
2024-03-15T16:03:53.184Z,79068.84
2024-03-15T16:05:26.865Z,79066.88
2024-03-15T16:07:00.242Z,79084.69
2024-03-15T16:08:33.940Z,79066.88
2024-03-15T16:10:07.913Z,79078.75
2024-03-15T16:11:42.542Z,79049.06
2024-03-15T16:13:33.606Z,79082.72
2024-03-15T16:15:08.609Z,79076.78
2024-03-15T16:16:42.204Z,79057.00
2024-03-15T16:18:16.420Z,79084.69
2024-03-15T16:19:50.935Z,79102.50
2024-03-15T16:21:24.086Z,79116.34
2024-03-15T16:22:58.273Z,79116.34
2024-03-15T16:24:34.904Z,79098.53
2024-03-15T16:26:08.812Z,79126.25
2024-03-15T16:27:43.131Z,79124.25
2024-03-15T16:29:16.273Z,79128.22
2024-03-15T16:30:51.344Z,79149.97
2024-03-15T16:32:24.917Z,79148.00
2024-03-15T16:33:58.037Z,79140.09
2024-03-15T16:35:32.091Z,79144.03
2024-03-15T16:37:06.182Z,79140.09
2024-03-15T16:38:40.317Z,79153.94
2024-03-15T16:40:18.597Z,79144.03
2024-03-15T16:41:52.118Z,79130.19
2024-03-15T16:43:25.579Z,79179.66
2024-03-15T16:44:59.771Z,79163.84
2024-03-15T16:46:33.441Z,79128.22
2024-03-15T16:48:07.377Z,79227.16
2024-03-15T16:49:40.546Z,79191.53
2024-03-15T16:51:13.629Z,79175.72
2024-03-15T16:52:49.152Z,79195.50
2024-03-15T16:54:22.416Z,79268.72
2024-03-15T16:55:57.921Z,79191.53
2024-03-15T16:57:32.925Z,79187.56
2024-03-15T16:59:06.621Z,79175.72
2024-03-15T17:00:39.922Z,79191.53
2024-03-15T17:02:13.521Z,79183.63
2024-03-15T17:03:46.640Z,79181.63
2024-03-15T17:05:19.864Z,79163.84
2024-03-15T17:06:56.335Z,79183.63
2024-03-15T17:08:30.312Z,79183.63
2024-03-15T17:10:06.804Z,79191.53
2024-03-15T17:11:41.283Z,79173.72
2024-03-15T17:13:14.794Z,79233.09
2024-03-15T17:14:47.973Z,79195.50
2024-03-15T17:16:21.464Z,79235.06
2024-03-15T17:17:58.197Z,79203.41
2024-03-15T17:19:38.473Z,79235.06
2024-03-15T17:21:21.509Z,79211.31
2024-03-15T17:22:54.707Z,79246.94
2024-03-15T17:24:28.161Z,79231.09
2024-03-15T17:26:03.706Z,79322.13
2024-03-15T17:27:37.403Z,79278.59
2024-03-15T17:29:11.192Z,79246.94
2024-03-15T17:30:44.892Z,79294.44
2024-03-15T17:40:51.029Z,79250.91
2024-03-15T17:45:16.614Z,79294.44
2024-03-15T17:46:50.412Z,79302.34
2024-03-15T17:48:24.559Z,79266.72
2024-03-15T17:49:58.639Z,79270.69
2024-03-15T17:51:32.149Z,79306.31
2024-03-15T17:53:05.115Z,79298.38
2024-03-15T17:54:38.512Z,79284.53
2024-03-15T17:56:11.258Z,79326.09
2024-03-15T17:57:44.257Z,79302.34
2024-03-15T17:59:18.168Z,79294.44
2024-03-15T18:00:51.264Z,79318.16
2024-03-15T18:02:24.353Z,79294.44
2024-03-15T18:03:57.667Z,79357.75
2024-03-15T18:05:30.970Z,79334.00
2024-03-15T18:07:04.160Z,79381.50
2024-03-15T18:08:37.049Z,79361.69
2024-03-15T18:10:14.153Z,79373.56
2024-03-15T18:12:07.588Z,79397.31
2024-03-15T18:13:40.906Z,79373.56
2024-03-15T18:15:14.488Z,79409.19
2024-03-15T18:16:47.893Z,79391.38
2024-03-15T18:18:21.104Z,79369.63
2024-03-15T18:19:54.475Z,79389.41
2024-03-15T18:21:27.348Z,79403.25
2024-03-15T18:23:00.523Z,79381.50
2024-03-15T18:24:33.880Z,79423.03
2024-03-15T18:26:07.544Z,79462.63
2024-03-15T18:27:41.058Z,79432.94
2024-03-15T18:29:14.701Z,79417.13
2024-03-15T18:30:51.725Z,79369.63
2024-03-15T18:32:24.952Z,79413.16
2024-03-15T18:33:58.047Z,79417.13
2024-03-15T18:35:30.910Z,79428.97
2024-03-15T18:37:04.547Z,79438.88
2024-03-15T18:38:37.701Z,79436.91
2024-03-15T18:40:11.837Z,79411.19
2024-03-15T18:41:45.446Z,79413.16
2024-03-15T18:43:21.873Z,79365.66
2024-03-15T18:44:58.367Z,79428.97
2024-03-15T18:46:35.391Z,79397.31
2024-03-15T18:48:08.874Z,79512.09
2024-03-15T18:49:42.579Z,79470.53